createdAt,value
2023-03-22T00:01:36.736Z,10.06
2023-03-22T00:11:39.793Z,9.94
2023-03-22T00:21:44.265Z,9.87
2023-03-22T00:31:47.392Z,9.79
2023-03-22T00:41:52.336Z,9.71
2023-03-22T00:51:55.628Z,9.64
2023-03-22T01:02:00.696Z,9.70
2023-03-22T01:12:04.134Z,9.74
2023-03-22T01:22:09.589Z,9.89
2023-03-22T01:32:13.148Z,10.09
2023-03-22T01:42:21.030Z,10.21
2023-03-22T01:52:25.078Z,10.27
2023-03-22T02:02:44.463Z,10.44
2023-03-22T02:13:20.726Z,10.40
2023-03-22T02:24:02.630Z,10.47
2023-03-22T02:34:43.964Z,10.49
2023-03-22T02:44:54.875Z,10.55
2023-03-22T02:55:05.312Z,10.68
2023-03-22T03:05:14.438Z,10.69
2023-03-22T03:15:20.315Z,10.74
2023-03-22T03:25:32.863Z,10.69
2023-03-22T03:35:40.988Z,10.70
2023-03-22T03:45:49.024Z,10.69
2023-03-22T03:55:52.153Z,10.63
2023-03-22T04:05:57.037Z,10.49
2023-03-22T04:16:02.255Z,10.39
2023-03-22T04:26:10.966Z,10.34
2023-03-22T04:36:30.836Z,10.27
2023-03-22T04:47:01.331Z,10.19
2023-03-22T04:57:05.020Z,10.19
2023-03-22T05:07:15.779Z,10.26
2023-03-22T05:17:25.148Z,10.29
2023-03-22T05:27:34.717Z,10.20
2023-03-22T05:37:56.758Z,10.19
2023-03-22T05:48:04.388Z,10.20
2023-03-22T05:58:19.039Z,10.23
2023-03-22T06:08:26.739Z,10.26
2023-03-22T06:18:36.189Z,10.26
2023-03-22T06:28:46.072Z,10.46
2023-03-22T06:38:49.285Z,10.62
2023-03-22T06:48:55.185Z,10.74
2023-03-22T06:59:09.388Z,11.08
2023-03-22T07:09:24.902Z,11.26
2023-03-22T07:19:31.343Z,11.23
2023-03-22T07:29:38.537Z,11.43
2023-03-22T07:39:42.616Z,11.57
2023-03-22T07:49:51.510Z,11.79
2023-03-22T08:00:13.476Z,12.05
2023-03-22T08:10:22.015Z,11.93
2023-03-22T08:20:26.144Z,12.19
2023-03-22T08:30:32.737Z,12.41
2023-03-22T08:40:35.973Z,12.55
2023-03-22T08:50:41.364Z,12.67
2023-03-22T09:00:54.013Z,13.02
2023-03-22T09:11:09.096Z,12.89
2023-03-22T09:21:13.101Z,13.19
2023-03-22T09:31:27.747Z,13.28
2023-03-22T09:41:51.653Z,13.36
2023-03-22T09:51:57.154Z,13.22
2023-03-22T10:02:02.594Z,13.15
2023-03-22T10:12:18.305Z,13.22
2023-03-22T10:22:25.791Z,12.98
2023-03-22T10:32:54.746Z,12.52
2023-03-22T10:43:05.233Z,12.21
2023-03-22T10:53:15.982Z,11.89
2023-03-22T11:03:39.558Z,11.68
2023-03-22T11:13:45.410Z,11.51
2023-03-22T11:23:56.458Z,11.82
2023-03-22T11:34:02.620Z,12.17
2023-03-22T11:44:13.456Z,12.15
2023-03-22T11:54:28.432Z,12.68
2023-03-22T12:04:35.682Z,12.61
2023-03-22T12:14:48.397Z,12.74
2023-03-22T12:24:51.556Z,12.78
2023-03-22T12:35:09.092Z,12.87
2023-03-22T12:45:23.833Z,12.93
2023-03-22T12:55:32.013Z,12.88
2023-03-22T13:05:36.245Z,12.85
2023-03-22T13:15:43.935Z,12.86
2023-03-22T13:26:01.984Z,12.83
2023-03-22T13:36:23.272Z,13.00
2023-03-22T13:46:53.889Z,12.93
2023-03-22T13:57:18.657Z,12.85
2023-03-22T14:07:27.784Z,12.98
2023-03-22T14:17:36.769Z,12.97
